createdAt,value
2023-02-22T00:00:14.731Z,1009.82
2023-02-22T00:01:15.053Z,1009.80
2023-02-22T00:02:14.737Z,1009.79
2023-02-22T00:03:14.752Z,1009.83
2023-02-22T00:04:14.682Z,1009.82
2023-02-22T00:05:14.713Z,1009.80
2023-02-22T00:06:14.664Z,1009.84
2023-02-22T00:07:14.656Z,1009.83
2023-02-22T00:08:14.639Z,1009.83
2023-02-22T00:09:14.631Z,1009.84
2023-02-22T00:10:14.627Z,1009.81
2023-02-22T00:11:14.967Z,1009.80
2023-02-22T00:12:14.593Z,1009.77
2023-02-22T00:13:14.630Z,1009.75
2023-02-22T00:14:14.573Z,1009.77
2023-02-22T00:15:14.573Z,1009.77
2023-02-22T00:16:14.570Z,1009.74
2023-02-22T00:17:14.546Z,1009.73
2023-02-22T00:18:14.530Z,1009.72
2023-02-22T00:19:14.524Z,1009.66
2023-02-22T00:20:14.515Z,1009.69
2023-02-22T00:21:14.733Z,1009.71
2023-02-22T00:22:14.484Z,1009.68
2023-02-22T00:23:14.479Z,1009.66
2023-02-22T00:24:14.462Z,1009.64
2023-02-22T00:25:14.464Z,1009.64
2023-02-22T00:26:14.445Z,1009.57
2023-02-22T00:27:14.432Z,1009.59
2023-02-22T00:28:14.424Z,1009.59
2023-02-22T00:29:14.412Z,1009.58
2023-02-22T00:30:14.428Z,1009.58
2023-02-22T00:31:14.925Z,1009.55
2023-02-22T00:32:14.453Z,1009.51
2023-02-22T00:33:14.382Z,1009.50
2023-02-22T00:34:14.353Z,1009.54
2023-02-22T00:35:14.355Z,1009.54
2023-02-22T00:36:14.339Z,1009.53
2023-02-22T00:37:14.322Z,1009.49
2023-02-22T00:38:14.317Z,1009.50
2023-02-22T00:39:14.299Z,1009.56
2023-02-22T00:40:14.296Z,1009.50
2023-02-22T00:41:14.716Z,1009.51
2023-02-22T00:42:14.275Z,1009.54
2023-02-22T00:43:14.275Z,1009.53
2023-02-22T00:44:14.242Z,1009.52
2023-02-22T00:45:14.248Z,1009.48
2023-02-22T00:46:14.308Z,1009.48
2023-02-22T00:47:14.209Z,1009.43
2023-02-22T00:48:14.212Z,1009.41
2023-02-22T00:49:14.185Z,1009.44
2023-02-22T00:50:14.195Z,1009.37
2023-02-22T00:51:14.668Z,1009.36
2023-02-22T00:52:14.163Z,1009.42
2023-02-22T00:53:14.144Z,1009.41
2023-02-22T00:54:14.157Z,1009.31
2023-02-22T00:55:14.130Z,1009.34
2023-02-22T00:56:14.121Z,1009.36
2023-02-22T00:57:14.104Z,1009.33
2023-02-22T00:58:14.113Z,1009.29
2023-02-22T00:59:14.078Z,1009.33
2023-02-22T01:00:14.083Z,1009.29
2023-02-22T01:01:14.332Z,1009.31
2023-02-22T01:02:14.092Z,1009.29
2023-02-22T01:03:14.054Z,1009.27
2023-02-22T01:04:14.026Z,1009.24
2023-02-22T01:05:14.038Z,1009.22
2023-02-22T01:06:14.011Z,1009.20
2023-02-22T01:07:13.988Z,1009.23
2023-02-22T01:08:13.991Z,1009.20
2023-02-22T01:09:13.974Z,1009.22
2023-02-22T01:10:13.973Z,1009.23
2023-02-22T01:11:14.222Z,1009.18
2023-02-22T01:12:13.948Z,1009.28
2023-02-22T01:13:13.944Z,1009.23
2023-02-22T01:14:13.947Z,1009.19
2023-02-22T01:15:13.925Z,1009.16
2023-02-22T01:16:13.948Z,1009.15
2023-02-22T01:17:13.879Z,1009.19
2023-02-22T01:18:13.874Z,1009.16
2023-02-22T01:19:13.872Z,1009.17
2023-02-22T01:20:13.889Z,1009.16
2023-02-22T01:21:13.942Z,1009.13
2023-02-22T01:22:13.831Z,1009.13
2023-02-22T01:23:13.817Z,1009.12
2023-02-22T01:24:13.804Z,1009.11
2023-02-22T01:25:13.797Z,1009.09
2023-02-22T01:26:13.799Z,1009.07
2023-02-22T01:27:13.785Z,1009.06
2023-02-22T01:28:13.764Z,1009.05
2023-02-22T01:29:13.756Z,1009.04
2023-02-22T01:30:13.770Z,1008.99
2023-02-22T01:31:13.776Z,1009.00
2023-02-22T01:32:13.760Z,1008.97
2023-02-22T01:33:13.716Z,1009.01
2023-02-22T01:34:13.695Z,1008.95
2023-02-22T01:35:13.709Z,1008.95
2023-02-22T01:36:13.681Z,1008.93
2023-02-22T01:37:13.662Z,1008.95
2023-02-22T01:38:13.649Z,1008.99
2023-02-22T01:39:13.649Z,1008.97
2023-02-22T01:40:13.624Z,1008.97
2023-02-22T01:41:13.773Z,1008.95
2023-02-22T01:42:13.607Z,1008.94
2023-02-22T01:43:13.594Z,1008.92
2023-02-22T01:44:13.579Z,1008.89
2023-02-22T01:45:13.572Z,1008.89
2023-02-22T01:46:13.596Z,1008.87
2023-02-22T01:47:13.548Z,1008.89
2023-02-22T01:48:13.533Z,1008.86
2023-02-22T01:49:13.532Z,1008.87
2023-02-22T01:50:13.518Z,1008.83
2023-02-22T01:51:13.517Z,1008.85
2023-02-22T01:52:13.501Z,1008.85
2023-02-22T01:53:13.484Z,1008.82
2023-02-22T01:54:13.492Z,1008.84
2023-02-22T01:55:13.461Z,1008.82
2023-02-22T01:56:13.452Z,1008.79
2023-02-22T01:57:13.437Z,1008.84
2023-02-22T01:58:13.425Z,1008.79
2023-02-22T01:59:13.417Z,1008.78
2023-02-22T02:00:13.410Z,1008.77
2023-02-22T02:01:13.402Z,1008.77
2023-02-22T02:02:13.378Z,1008.73
2023-02-22T02:03:13.380Z,1008.69
2023-02-22T02:04:13.414Z,1008.69
2023-02-22T02:05:13.379Z,1008.73
2023-02-22T02:06:13.364Z,1008.77
2023-02-22T02:07:13.330Z,1008.78
2023-02-22T02:08:13.326Z,1008.74
2023-02-22T02:09:13.306Z,1008.74
2023-02-22T02:10:13.291Z,1008.76
2023-02-22T02:11:13.297Z,1008.76
2023-02-22T02:12:13.269Z,1008.71
2023-02-22T02:13:13.273Z,1008.69
2023-02-22T02:14:13.251Z,1008.67
2023-02-22T02:15:13.253Z,1008.68
2023-02-22T02:16:13.236Z,1008.69
2023-02-22T02:17:13.232Z,1008.70
2023-02-22T02:18:13.203Z,1008.66
2023-02-22T02:19:13.197Z,1008.66
2023-02-22T02:20:13.199Z,1008.66
2023-02-22T02:21:13.189Z,1008.69
2023-02-22T02:22:13.161Z,1008.68
2023-02-22T02:23:13.159Z,1008.67
2023-02-22T02:24:13.138Z,1008.67
2023-02-22T02:25:13.134Z,1008.63
2023-02-22T02:26:13.137Z,1008.63
2023-02-22T02:27:13.143Z,1008.64
2023-02-22T02:28:13.099Z,1008.62
2023-02-22T02:29:13.112Z,1008.65
2023-02-22T02:30:13.099Z,1008.62
2023-02-22T02:31:13.074Z,1008.64
2023-02-22T02:32:13.259Z,1008.61
2023-02-22T02:33:13.056Z,1008.60
2023-02-22T02:34:13.038Z,1008.60
2023-02-22T02:35:13.039Z,1008.63
2023-02-22T02:36:13.049Z,1008.63
2023-02-22T02:37:13.012Z,1008.63
2023-02-22T02:38:12.988Z,1008.62
2023-02-22T02:39:12.978Z,1008.61
2023-02-22T02:40:13.033Z,1008.61
2023-02-22T02:41:12.955Z,1008.62
2023-02-22T02:42:12.956Z,1008.61
2023-02-22T02:43:12.936Z,1008.62
2023-02-22T02:44:12.918Z,1008.63
2023-02-22T02:45:12.917Z,1008.63
2023-02-22T02:46:12.895Z,1008.60
2023-02-22T02:47:12.983Z,1008.62
2023-02-22T02:48:12.882Z,1008.54
2023-02-22T02:49:12.878Z,1008.44
2023-02-22T02:50:12.870Z,1008.43
2023-02-22T02:51:12.847Z,1008.41
2023-02-22T02:52:12.838Z,1008.42
2023-02-22T02:53:12.829Z,1008.34
2023-02-22T02:54:12.810Z,1008.37
2023-02-22T02:55:12.800Z,1008.35
2023-02-22T02:56:12.790Z,1008.36
2023-02-22T02:57:12.790Z,1008.33
2023-02-22T02:58:12.765Z,1008.32
2023-02-22T02:59:12.760Z,1008.33
2023-02-22T03:00:12.746Z,1008.27
2023-02-22T03:01:12.760Z,1008.32
2023-02-22T03:02:12.742Z,1008.30
2023-02-22T03:03:12.747Z,1008.29
2023-02-22T03:04:12.699Z,1008.27
2023-02-22T03:05:12.688Z,1008.27
2023-02-22T03:06:12.680Z,1008.27
2023-02-22T03:07:12.725Z,1008.26
2023-02-22T03:08:12.654Z,1008.24
2023-02-22T03:09:12.646Z,1008.22
2023-02-22T03:10:12.632Z,1008.24
2023-02-22T03:11:12.639Z,1008.25
2023-02-22T03:12:12.619Z,1008.20
2023-02-22T03:13:12.610Z,1008.22
2023-02-22T03:14:12.592Z,1008.22
2023-02-22T03:15:12.583Z,1008.18
2023-02-22T03:16:12.596Z,1008.17
2023-02-22T03:17:12.566Z,1008.13
2023-02-22T03:18:12.573Z,1008.12
2023-02-22T03:19:12.540Z,1008.19
2023-02-22T03:20:12.525Z,1008.16
2023-02-22T03:21:12.518Z,1008.20
2023-02-22T03:22:12.513Z,1008.19
2023-02-22T03:23:12.495Z,1008.12
2023-02-22T03:24:12.483Z,1008.12
2023-02-22T03:25:12.498Z,1008.15
2023-02-22T03:26:12.457Z,1008.14
2023-02-22T03:27:12.519Z,1008.12
2023-02-22T03:28:12.437Z,1008.13
2023-02-22T03:29:12.443Z,1008.04
2023-02-22T03:30:12.505Z,1008.06
2023-02-22T03:31:12.524Z,1008.02
2023-02-22T03:32:12.438Z,1008.02
2023-02-22T03:33:12.425Z,1008.03
2023-02-22T03:34:12.371Z,1008.03
2023-02-22T03:35:12.378Z,1008.02
2023-02-22T03:36:12.352Z,1007.94
2023-02-22T03:37:12.357Z,1007.98
2023-02-22T03:38:12.330Z,1008.01
2023-02-22T03:39:12.345Z,1007.99
2023-02-22T03:40:12.306Z,1007.98
2023-02-22T03:41:12.317Z,1007.98
2023-02-22T03:42:12.303Z,1007.91
2023-02-22T03:43:12.284Z,1007.93
2023-02-22T03:44:12.293Z,1007.93
2023-02-22T03:45:12.280Z,1007.94
2023-02-22T03:46:12.271Z,1007.98
2023-02-22T03:47:12.247Z,1007.96
2023-02-22T03:48:12.230Z,1007.97
2023-02-22T03:49:12.208Z,1007.91
2023-02-22T03:50:12.204Z,1007.94
2023-02-22T03:51:12.205Z,1007.93
2023-02-22T03:52:12.178Z,1007.89
2023-02-22T03:53:12.184Z,1007.89
2023-02-22T03:54:12.159Z,1007.87
2023-02-22T03:55:12.159Z,1007.87
2023-02-22T03:56:12.134Z,1007.84
2023-02-22T03:57:12.126Z,1007.86
2023-02-22T03:58:12.135Z,1007.81
2023-02-22T03:59:12.114Z,1007.81
2023-02-22T04:00:12.105Z,1007.81
2023-02-22T04:01:12.098Z,1007.81
2023-02-22T04:02:12.081Z,1007.79
2023-02-22T04:03:12.087Z,1007.82
2023-02-22T04:04:12.046Z,1007.84
2023-02-22T04:05:12.028Z,1007.80
2023-02-22T04:06:12.027Z,1007.82
2023-02-22T04:07:12.008Z,1007.83
2023-02-22T04:08:12.015Z,1007.82
2023-02-22T04:09:11.988Z,1007.80
2023-02-22T04:10:11.986Z,1007.82
2023-02-22T04:11:11.970Z,1007.81
2023-02-22T04:12:11.963Z,1007.78
2023-02-22T04:13:11.954Z,1007.77
2023-02-22T04:14:11.938Z,1007.74
2023-02-22T04:15:11.925Z,1007.76
2023-02-22T04:16:12.006Z,1007.74
2023-02-22T04:17:11.897Z,1007.74
2023-02-22T04:18:11.907Z,1007.73
2023-02-22T04:19:11.879Z,1007.71
2023-02-22T04:20:11.869Z,1007.68
2023-02-22T04:21:11.890Z,1007.72
2023-02-22T04:22:11.852Z,1007.69
2023-02-22T04:23:11.849Z,1007.68
2023-02-22T04:24:11.842Z,1007.67
2023-02-22T04:25:11.808Z,1007.68
2023-02-22T04:26:11.801Z,1007.70
2023-02-22T04:27:11.830Z,1007.71
2023-02-22T04:28:11.792Z,1007.72
2023-02-22T04:29:11.784Z,1007.69
2023-02-22T04:30:11.785Z,1007.66
2023-02-22T04:31:11.813Z,1007.65
2023-02-22T04:32:11.772Z,1007.66
2023-02-22T04:33:11.740Z,1007.66
2023-02-22T04:34:11.715Z,1007.64
2023-02-22T04:35:11.712Z,1007.69
2023-02-22T04:36:11.693Z,1007.67
2023-02-22T04:37:11.682Z,1007.66
2023-02-22T04:38:11.680Z,1007.67
2023-02-22T04:39:12.564Z,1007.63
2023-02-22T04:40:11.675Z,1007.63
2023-02-22T04:41:11.637Z,1007.65
2023-02-22T04:42:11.629Z,1007.62
2023-02-22T04:43:11.618Z,1007.62
2023-02-22T04:44:11.620Z,1007.66
2023-02-22T04:45:11.596Z,1007.63
2023-02-22T04:46:11.606Z,1007.68
2023-02-22T04:47:11.570Z,1007.64
2023-02-22T04:48:11.570Z,1007.62
2023-02-22T04:49:11.555Z,1007.66
2023-02-22T04:50:12.581Z,1007.61
2023-02-22T04:51:11.526Z,1007.62
2023-02-22T04:52:11.520Z,1007.59
2023-02-22T04:53:11.509Z,1007.62
2023-02-22T04:54:11.496Z,1007.64
2023-02-22T04:55:11.486Z,1007.63
2023-02-22T04:56:11.476Z,1007.61
2023-02-22T04:57:11.457Z,1007.62
2023-02-22T04:58:11.464Z,1007.62
2023-02-22T04:59:11.443Z,1007.61
2023-02-22T05:00:11.427Z,1007.64
2023-02-22T05:01:11.414Z,1007.60
2023-02-22T05:02:11.405Z,1007.61
2023-02-22T05:03:11.416Z,1007.58
2023-02-22T05:04:11.385Z,1007.61
2023-02-22T05:05:11.521Z,1007.63
2023-02-22T05:06:11.359Z,1007.61
2023-02-22T05:07:11.373Z,1007.61
2023-02-22T05:08:11.340Z,1007.59
2023-02-22T05:09:11.332Z,1007.59
2023-02-22T05:10:11.316Z,1007.60
2023-02-22T05:11:11.301Z,1007.57
2023-02-22T05:12:11.297Z,1007.56
2023-02-22T05:13:11.280Z,1007.60
2023-02-22T05:14:11.295Z,1007.57
2023-02-22T05:15:11.273Z,1007.59
2023-02-22T05:16:11.347Z,1007.61
2023-02-22T05:17:11.233Z,1007.64
2023-02-22T05:18:11.267Z,1007.61
2023-02-22T05:19:11.583Z,1007.60
2023-02-22T05:20:11.204Z,1007.60
2023-02-22T05:21:11.192Z,1007.62
2023-02-22T05:22:11.192Z,1007.61
2023-02-22T05:23:11.167Z,1007.57
2023-02-22T05:24:11.172Z,1007.59
2023-02-22T05:25:11.143Z,1007.56
2023-02-22T05:26:11.729Z,1007.54
2023-02-22T05:27:11.175Z,1007.53
2023-02-22T05:28:11.117Z,1007.54
2023-02-22T05:29:11.173Z,1007.53
2023-02-22T05:30:11.224Z,1007.55
2023-02-22T05:31:11.113Z,1007.54
2023-02-22T05:32:11.154Z,1007.55
2023-02-22T05:33:11.069Z,1007.56
2023-02-22T05:34:11.060Z,1007.57
2023-02-22T05:35:11.053Z,1007.54
2023-02-22T05:36:11.032Z,1007.52
2023-02-22T05:37:11.031Z,1007.54
2023-02-22T05:38:11.006Z,1007.51
2023-02-22T05:39:11.008Z,1007.52
2023-02-22T05:40:10.983Z,1007.44
2023-02-22T05:41:10.978Z,1007.45
2023-02-22T05:42:10.961Z,1007.45
2023-02-22T05:43:10.971Z,1007.50
2023-02-22T05:44:10.945Z,1007.46
2023-02-22T05:45:10.932Z,1007.46
2023-02-22T05:46:10.964Z,1007.46
2023-02-22T05:47:10.932Z,1007.48
2023-02-22T05:48:10.903Z,1007.49
2023-02-22T05:49:10.899Z,1007.46
2023-02-22T05:50:10.877Z,1007.47
2023-02-22T05:51:10.882Z,1007.43
2023-02-22T05:52:10.853Z,1007.46
2023-02-22T05:53:10.846Z,1007.49
2023-02-22T05:54:10.840Z,1007.45
2023-02-22T05:55:10.822Z,1007.42
2023-02-22T05:56:10.807Z,1007.39
2023-02-22T05:57:10.799Z,1007.38
2023-02-22T05:58:10.783Z,1007.40
2023-02-22T05:59:10.785Z,1007.37
2023-02-22T06:00:10.766Z,1007.40
2023-02-22T06:01:10.756Z,1007.38
2023-02-22T06:02:10.819Z,1007.39
2023-02-22T06:03:10.736Z,1007.32
2023-02-22T06:04:10.728Z,1007.37
2023-02-22T06:05:10.763Z,1007.40
2023-02-22T06:06:10.697Z,1007.41
2023-02-22T06:07:10.695Z,1007.37
2023-02-22T06:08:10.680Z,1007.38
2023-02-22T06:09:10.677Z,1007.39
2023-02-22T06:10:10.651Z,1007.34
2023-02-22T06:11:10.653Z,1007.37
2023-02-22T06:12:10.635Z,1007.36
2023-02-22T06:13:10.618Z,1007.36
2023-02-22T06:14:10.612Z,1007.39
2023-02-22T06:15:10.605Z,1007.34
2023-02-22T06:16:10.658Z,1007.35
2023-02-22T06:17:10.576Z,1007.37
2023-02-22T06:18:10.560Z,1007.35
2023-02-22T06:19:10.568Z,1007.37
2023-02-22T06:20:10.540Z,1007.36
2023-02-22T06:21:10.540Z,1007.37
2023-02-22T06:22:10.517Z,1007.39
2023-02-22T06:23:10.541Z,1007.33
2023-02-22T06:24:10.515Z,1007.33
2023-02-22T06:25:10.490Z,1007.37
2023-02-22T06:26:10.540Z,1007.35
2023-02-22T06:27:10.466Z,1007.35
2023-02-22T06:28:10.450Z,1007.35
2023-02-22T06:29:10.453Z,1007.33
2023-02-22T06:30:12.277Z,1007.33
2023-02-22T06:31:10.494Z,1007.33
2023-02-22T06:32:10.445Z,1007.36
2023-02-22T06:33:10.403Z,1007.36
2023-02-22T06:34:10.383Z,1007.36
2023-02-22T06:35:10.396Z,1007.33
2023-02-22T06:36:10.362Z,1007.36
2023-02-22T06:37:10.359Z,1007.36
2023-02-22T06:38:10.347Z,1007.36
2023-02-22T06:39:10.334Z,1007.36
2023-02-22T06:40:10.331Z,1007.35
2023-02-22T06:41:10.350Z,1007.34
2023-02-22T06:42:10.381Z,1007.34
2023-02-22T06:43:10.288Z,1007.28
2023-02-22T06:44:10.280Z,1007.34
2023-02-22T06:45:10.286Z,1007.33
2023-02-22T06:46:10.260Z,1007.33
2023-02-22T06:47:10.245Z,1007.30
2023-02-22T06:48:10.237Z,1007.31
2023-02-22T06:49:10.221Z,1007.32
2023-02-22T06:50:10.220Z,1007.27
2023-02-22T06:51:10.206Z,1007.37
2023-02-22T06:52:10.209Z,1007.35
2023-02-22T06:53:10.182Z,1007.36
2023-02-22T06:54:10.170Z,1007.39
2023-02-22T06:55:10.164Z,1007.36
2023-02-22T06:56:10.149Z,1007.34
2023-02-22T06:57:10.152Z,1007.41
2023-02-22T06:58:10.172Z,1007.36
2023-02-22T06:59:10.111Z,1007.36
2023-02-22T07:00:10.120Z,1007.35
2023-02-22T07:01:10.173Z,1007.35
2023-02-22T07:02:10.083Z,1007.33
2023-02-22T07:03:10.151Z,1007.30
2023-02-22T07:04:10.063Z,1007.32
2023-02-22T07:05:10.061Z,1007.35
2023-02-22T07:06:10.072Z,1007.35
2023-02-22T07:07:10.032Z,1007.32
2023-02-22T07:08:10.022Z,1007.34
2023-02-22T07:09:10.011Z,1007.35
2023-02-22T07:10:10.013Z,1007.37
2023-02-22T07:11:09.993Z,1007.37
2023-02-22T07:12:09.977Z,1007.36
2023-02-22T07:13:09.962Z,1007.39
2023-02-22T07:14:09.964Z,1007.38
2023-02-22T07:15:09.972Z,1007.35
2023-02-22T07:16:09.945Z,1007.36
2023-02-22T07:17:09.923Z,1007.34
2023-02-22T07:18:09.921Z,1007.33
2023-02-22T07:19:09.898Z,1007.32
2023-02-22T07:20:09.907Z,1007.33
2023-02-22T07:21:09.874Z,1007.31
2023-02-22T07:22:09.877Z,1007.35
2023-02-22T07:23:09.861Z,1007.31
2023-02-22T07:24:09.854Z,1007.34
2023-02-22T07:25:09.844Z,1007.33
2023-02-22T07:26:09.830Z,1007.36
2023-02-22T07:27:09.813Z,1007.37
2023-02-22T07:28:09.806Z,1007.41
2023-02-22T07:29:09.791Z,1007.38
2023-02-22T07:30:09.820Z,1007.35
2023-02-22T07:31:09.770Z,1007.39
2023-02-22T07:32:09.892Z,1007.39
2023-02-22T07:33:09.814Z,1007.35
2023-02-22T07:34:09.750Z,1007.34
2023-02-22T07:35:09.750Z,1007.38
2023-02-22T07:36:09.722Z,1007.31
2023-02-22T07:37:09.706Z,1007.31
2023-02-22T07:38:09.724Z,1007.30
2023-02-22T07:39:09.698Z,1007.34
2023-02-22T07:40:09.677Z,1007.34
2023-02-22T07:41:09.667Z,1007.32
2023-02-22T07:42:09.658Z,1007.32
2023-02-22T07:43:09.638Z,1007.32
2023-02-22T07:44:09.630Z,1007.36
2023-02-22T07:45:09.625Z,1007.33
2023-02-22T07:46:09.623Z,1007.32
2023-02-22T07:47:09.593Z,1007.35
2023-02-22T07:48:09.585Z,1007.32
2023-02-22T07:49:09.573Z,1007.32
2023-02-22T07:50:09.565Z,1007.31
2023-02-22T07:51:09.665Z,1007.30
2023-02-22T07:52:09.547Z,1007.34
2023-02-22T07:53:09.530Z,1007.31
2023-02-22T07:54:09.525Z,1007.32
2023-02-22T07:55:09.506Z,1007.29
2023-02-22T07:56:09.510Z,1007.30
2023-02-22T07:57:09.489Z,1007.29
2023-02-22T07:58:09.476Z,1007.29
2023-02-22T07:59:09.471Z,1007.29
2023-02-22T08:00:09.461Z,1007.28
2023-02-22T08:01:09.498Z,1007.26
2023-02-22T08:02:09.457Z,1007.28
2023-02-22T08:03:09.423Z,1007.27
2023-02-22T08:04:09.423Z,1007.27
2023-02-22T08:05:09.396Z,1007.23
2023-02-22T08:06:09.400Z,1007.23
2023-02-22T08:07:09.399Z,1007.24
2023-02-22T08:08:09.368Z,1007.22
2023-02-22T08:09:09.365Z,1007.20
2023-02-22T08:10:09.346Z,1007.24
2023-02-22T08:11:09.340Z,1007.24
2023-02-22T08:12:09.324Z,1007.21
2023-02-22T08:13:09.407Z,1007.19
2023-02-22T08:14:09.301Z,1007.20
2023-02-22T08:15:09.287Z,1007.17
2023-02-22T08:16:09.296Z,1007.21
2023-02-22T08:17:09.295Z,1007.17
2023-02-22T08:18:09.256Z,1007.17
2023-02-22T08:19:09.252Z,1007.15
2023-02-22T08:20:09.243Z,1007.17
2023-02-22T08:21:09.228Z,1007.12
2023-02-22T08:22:09.233Z,1007.14
2023-02-22T08:23:09.200Z,1007.09
2023-02-22T08:24:09.192Z,1007.12
2023-02-22T08:25:09.183Z,1007.12
2023-02-22T08:26:09.183Z,1007.11
2023-02-22T08:27:09.155Z,1007.11
2023-02-22T08:28:09.150Z,1007.09
2023-02-22T08:29:09.130Z,1007.13
2023-02-22T08:30:09.197Z,1007.07
2023-02-22T08:31:09.284Z,1007.08
2023-02-22T08:32:09.284Z,1007.11
2023-02-22T08:33:09.333Z,1007.12
2023-02-22T08:34:09.093Z,1007.09
2023-02-22T08:35:09.078Z,1007.04
2023-02-22T08:36:09.068Z,1007.06
2023-02-22T08:37:09.048Z,1007.05
2023-02-22T08:38:09.051Z,1007.07
2023-02-22T08:39:09.028Z,1007.05
2023-02-22T08:40:09.031Z,1007.04
2023-02-22T08:41:09.006Z,1007.08
2023-02-22T08:42:08.998Z,1007.06
2023-02-22T08:43:08.990Z,1007.02
2023-02-22T08:44:08.968Z,1007.04
2023-02-22T08:45:08.969Z,1007.04
2023-02-22T08:46:08.995Z,1007.01
2023-02-22T08:47:08.931Z,1006.99
2023-02-22T08:48:08.930Z,1006.99
2023-02-22T08:49:08.963Z,1006.97
2023-02-22T08:50:08.906Z,1006.95
2023-02-22T08:51:08.922Z,1006.96
2023-02-22T08:52:08.883Z,1006.91
2023-02-22T08:53:08.889Z,1006.95
2023-02-22T08:54:08.857Z,1006.92
2023-02-22T08:55:08.850Z,1006.95
2023-02-22T08:56:08.843Z,1006.93
2023-02-22T08:57:08.827Z,1006.91
2023-02-22T08:58:08.832Z,1006.92
2023-02-22T08:59:08.802Z,1006.88
2023-02-22T09:00:08.823Z,1006.88
2023-02-22T09:01:08.775Z,1006.88
2023-02-22T09:02:08.815Z,1006.84
2023-02-22T09:03:08.761Z,1006.84
2023-02-22T09:04:08.761Z,1006.86
2023-02-22T09:05:08.749Z,1006.89
2023-02-22T09:06:08.851Z,1006.79
2023-02-22T09:07:08.757Z,1006.82
2023-02-22T09:08:08.904Z,1006.81
2023-02-22T09:09:08.714Z,1006.77
2023-02-22T09:10:08.678Z,1006.79
2023-02-22T09:11:08.674Z,1006.78
2023-02-22T09:12:08.670Z,1006.70
2023-02-22T09:13:08.679Z,1006.73
2023-02-22T09:14:08.665Z,1006.79
2023-02-22T09:15:08.621Z,1006.79
2023-02-22T09:16:08.665Z,1006.78
2023-02-22T09:17:08.655Z,1006.77
2023-02-22T09:18:08.601Z,1006.70
2023-02-22T09:19:08.594Z,1006.73
2023-02-22T09:20:08.617Z,1006.68
2023-02-22T09:21:08.627Z,1006.64
2023-02-22T09:22:08.614Z,1006.70
2023-02-22T09:23:08.534Z,1006.67
2023-02-22T09:24:08.612Z,1006.70
2023-02-22T09:25:16.610Z,1006.67
2023-02-22T09:26:08.518Z,1006.66
2023-02-22T09:27:08.501Z,1006.66
2023-02-22T09:28:08.484Z,1006.64
2023-02-22T09:29:08.465Z,1006.64
2023-02-22T09:30:08.525Z,1006.61
2023-02-22T09:31:08.446Z,1006.60
2023-02-22T09:32:08.741Z,1006.65
2023-02-22T09:33:08.591Z,1006.67
2023-02-22T09:34:08.417Z,1006.66
2023-02-22T09:35:08.399Z,1006.58
2023-02-22T09:36:08.421Z,1006.64
2023-02-22T09:37:08.402Z,1006.61
2023-02-22T09:38:08.412Z,1006.57
2023-02-22T09:39:08.355Z,1006.59
2023-02-22T09:40:08.377Z,1006.59
2023-02-22T09:41:08.357Z,1006.56
2023-02-22T09:42:08.343Z,1006.57
2023-02-22T09:43:08.324Z,1006.55
2023-02-22T09:44:08.306Z,1006.55
2023-02-22T09:45:08.306Z,1006.64
2023-02-22T09:46:08.376Z,1006.56
2023-02-22T09:47:08.274Z,1006.55
2023-02-22T09:48:21.192Z,1006.56
2023-02-22T09:49:08.252Z,1006.53
2023-02-22T09:50:08.233Z,1006.53
2023-02-22T09:51:08.401Z,1006.54
2023-02-22T09:52:08.237Z,1006.52
2023-02-22T09:53:08.222Z,1006.48
2023-02-22T09:54:08.203Z,1006.49
2023-02-22T09:55:08.178Z,1006.46
2023-02-22T09:56:08.169Z,1006.47
2023-02-22T09:57:08.156Z,1006.47
2023-02-22T09:58:08.183Z,1006.46
2023-02-22T09:59:08.137Z,1006.44
2023-02-22T10:00:08.137Z,1006.47
2023-02-22T10:01:08.144Z,1006.45
2023-02-22T10:02:08.177Z,1006.51
2023-02-22T10:03:08.202Z,1006.50
2023-02-22T10:04:08.113Z,1006.52
2023-02-22T10:05:08.160Z,1006.44
2023-02-22T10:06:08.090Z,1006.47
2023-02-22T10:07:08.058Z,1006.46
2023-02-22T10:08:08.054Z,1006.46
2023-02-22T10:09:08.086Z,1006.48
2023-02-22T10:10:08.018Z,1006.49
2023-02-22T10:11:08.041Z,1006.48
2023-02-22T10:12:08.002Z,1006.47
2023-02-22T10:13:07.990Z,1006.50
2023-02-22T10:14:07.979Z,1006.43
2023-02-22T10:15:07.961Z,1006.38
2023-02-22T10:16:08.048Z,1006.38
2023-02-22T10:17:07.949Z,1006.37
2023-02-22T10:18:08.000Z,1006.36
2023-02-22T10:19:07.963Z,1006.34
2023-02-22T10:20:07.911Z,1006.36
2023-02-22T10:21:07.996Z,1006.33
2023-02-22T10:22:07.902Z,1006.33
2023-02-22T10:23:07.935Z,1006.28
2023-02-22T10:24:07.868Z,1006.28
2023-02-22T10:25:09.667Z,1006.32
2023-02-22T10:26:07.914Z,1006.32
2023-02-22T10:27:07.825Z,1006.35
2023-02-22T10:28:07.836Z,1006.34
2023-02-22T10:29:07.804Z,1006.30
2023-02-22T10:30:22.355Z,1006.31
2023-02-22T10:31:08.077Z,1006.31
2023-02-22T10:32:07.886Z,1006.29
2023-02-22T10:33:07.773Z,1006.28
2023-02-22T10:34:07.763Z,1006.29
2023-02-22T10:35:07.765Z,1006.32
2023-02-22T10:36:07.788Z,1006.31
2023-02-22T10:37:07.725Z,1006.30
2023-02-22T10:38:07.741Z,1006.30
2023-02-22T10:39:07.702Z,1006.28
2023-02-22T10:40:07.698Z,1006.28
2023-02-22T10:41:07.713Z,1006.27
2023-02-22T10:42:07.725Z,1006.29
2023-02-22T10:43:07.672Z,1006.24
2023-02-22T10:44:07.648Z,1006.27
2023-02-22T10:45:07.634Z,1006.23
2023-02-22T10:46:07.722Z,1006.20
2023-02-22T10:47:07.626Z,1006.20
2023-02-22T10:48:07.617Z,1006.22
2023-02-22T10:49:07.591Z,1006.22
2023-02-22T10:50:07.585Z,1006.21
2023-02-22T10:51:07.649Z,1006.17
2023-02-22T10:52:07.610Z,1006.22
2023-02-22T10:53:07.566Z,1006.21
2023-02-22T10:54:07.544Z,1006.11
2023-02-22T10:55:15.327Z,1006.11
2023-02-22T10:56:07.623Z,1006.08
2023-02-22T10:57:07.499Z,1006.06
2023-02-22T10:58:07.515Z,1006.11
2023-02-22T10:59:07.479Z,1006.09
2023-02-22T11:00:07.474Z,1006.03
2023-02-22T11:01:07.565Z,1006.05
2023-02-22T11:02:07.473Z,1006.03
2023-02-22T11:03:07.466Z,1006.02
2023-02-22T11:04:07.433Z,1006.06
2023-02-22T11:05:07.470Z,1006.02
2023-02-22T11:06:07.417Z,1006.01
2023-02-22T11:07:07.391Z,1005.99
2023-02-22T11:08:07.390Z,1005.96
2023-02-22T11:09:07.375Z,1006.03
2023-02-22T11:10:07.360Z,1006.03
2023-02-22T11:11:07.401Z,1006.03
2023-02-22T11:12:07.344Z,1006.01
2023-02-22T11:13:07.323Z,1006.03
2023-02-22T11:14:07.321Z,1006.03
2023-02-22T11:15:07.304Z,1005.97
2023-02-22T11:16:07.359Z,1006.00
2023-02-22T11:17:07.284Z,1005.96
2023-02-22T11:18:08.880Z,1005.96
2023-02-22T11:19:07.261Z,1005.92
2023-02-22T11:20:07.248Z,1005.93
2023-02-22T11:21:07.262Z,1005.95
2023-02-22T11:22:07.231Z,1005.98
2023-02-22T11:23:07.247Z,1005.93
2023-02-22T11:24:07.219Z,1005.92
2023-02-22T11:25:07.188Z,1005.92
2023-02-22T11:26:07.230Z,1005.92
2023-02-22T11:27:07.191Z,1005.91
2023-02-22T11:28:07.159Z,1005.87
2023-02-22T11:29:07.149Z,1005.88
2023-02-22T11:30:07.135Z,1005.82
2023-02-22T11:31:07.377Z,1005.88
2023-02-22T11:32:07.168Z,1005.84
2023-02-22T11:33:07.100Z,1005.83
2023-02-22T11:34:07.101Z,1005.83
2023-02-22T11:35:09.330Z,1005.80
2023-02-22T11:36:07.136Z,1005.83
2023-02-22T11:37:07.052Z,1005.78
2023-02-22T11:38:07.048Z,1005.78
2023-02-22T11:39:07.160Z,1005.76
2023-02-22T11:40:07.024Z,1005.75
2023-02-22T11:41:07.146Z,1005.73
2023-02-22T11:42:07.002Z,1005.74
2023-02-22T11:43:06.984Z,1005.72
2023-02-22T11:44:06.987Z,1005.71
2023-02-22T11:45:06.964Z,1005.73
2023-02-22T11:46:07.081Z,1005.72
2023-02-22T11:47:07.217Z,1005.70
2023-02-22T11:48:06.940Z,1005.71
2023-02-22T11:49:06.977Z,1005.67
2023-02-22T11:50:13.655Z,1005.65
2023-02-22T11:51:07.046Z,1005.69
2023-02-22T11:52:06.890Z,1005.65
2023-02-22T11:53:06.872Z,1005.67
2023-02-22T11:54:06.891Z,1005.63
2023-02-22T11:55:06.850Z,1005.61
2023-02-22T11:56:06.899Z,1005.62
2023-02-22T11:57:06.851Z,1005.62
2023-02-22T11:58:06.834Z,1005.57
2023-02-22T11:59:06.818Z,1005.55
2023-02-22T12:00:06.808Z,1005.54
2023-02-22T12:01:06.942Z,1005.52
2023-02-22T12:02:06.783Z,1005.51
2023-02-22T12:03:06.773Z,1005.49
2023-02-22T12:04:06.930Z,1005.54
2023-02-22T12:05:06.788Z,1005.50